Time;durP1;ratioP1;P1;durP2;ratioP2;P2;SDS_P1;SDS_P2;PMS_P1;PMS_P2;Temp;Humidity;BMP_temperature;BMP_pressure;BME280_temperature;BME280_humidity;BME280_pressure;Samples;Min_cycle;Max_cycle;Signal;HPM_P1;HPM_P2
2022/07/20 00:01:23;;;;;;;3.55;2.25;;;;;;;20.09;56.41;97269.41;10176135;29;20056;-55
2022/07/20 00:06:43;;;;;;;4.20;2.30;;;;;;;20.11;56.43;97259.06;10176094;29;20472;-56
2022/07/20 00:12:02;;;;;;;3.72;2.25;;;;;;;20.10;56.29;97268.31;10177718;29;20415;-56
2022/07/20 00:17:22;;;;;;;3.22;2.40;;;;;;;20.10;56.14;97257.50;10175097;29;20064;-56
2022/07/20 00:22:42;;;;;;;2.92;2.15;;;;;;;20.09;56.00;97264.00;10190085;29;20056;-56
2022/07/20 00:28:01;;;;;;;2.50;2.22;;;;;;;20.09;55.86;97269.41;10174667;29;20063;-56
2022/07/20 00:33:21;;;;;;;2.45;2.25;;;;;;;20.09;56.00;97264.81;10167506;29;20060;-56
2022/07/20 00:38:41;;;;;;;3.78;2.42;;;;;;;20.10;56.00;97265.59;10174670;29;20079;-56
2022/07/20 00:44:08;;;;;;;2.50;2.30;;;;;;;20.10;56.04;97262.91;10199771;29;20453;-55
2022/07/20 00:49:27;;;;;;;2.83;2.20;;;;;;;20.10;55.96;97262.91;10164609;29;20071;-56
2022/07/20 00:54:48;;;;;;;3.53;2.35;;;;;;;20.10;55.88;97249.38;10209484;29;20048;-56
2022/07/20 01:00:08;;;;;;;2.85;2.28;;;;;;;20.10;55.89;97254.78;10174060;29;20052;-56
2022/07/20 01:05:27;;;;;;;2.33;2.13;;;;;;;20.09;55.95;97248.59;10174110;29;20071;-56
2022/07/20 01:10:47;;;;;;;2.75;2.05;;;;;;;20.09;55.86;97239.66;10173328;29;20068;-56
2022/07/20 01:16:06;;;;;;;2.78;2.10;;;;;;;20.10;55.87;97246.66;10173632;29;20123;-56
2022/07/20 01:21:26;;;;;;;4.18;2.30;;;;;;;20.09;55.82;97237.75;10186212;29;20579;-56
2022/07/20 01:26:46;;;;;;;2.40;2.20;;;;;;;20.10;55.78;97238.56;10185467;29;20056;-56
2022/07/20 01:32:05;;;;;;;2.47;2.10;;;;;;;20.09;55.88;97240.47;10153861;29;20519;-56
2022/07/20 01:37:25;;;;;;;2.50;2.13;;;;;;;20.09;55.81;97237.75;10174651;29;20535;-56
2022/07/20 01:42:44;;;;;;;3.55;2.20;;;;;;;20.09;55.76;97237.75;10187778;29;20051;-56
2022/07/20 01:48:04;;;;;;;3.03;2.20;;;;;;;20.09;55.84;97235.06;10185285;29;20432;-56
2022/07/20 01:53:24;;;;;;;2.28;2.08;;;;;;;20.10;55.71;97238.56;10190442;29;20408;-56
2022/07/20 01:58:43;;;;;;;2.17;1.98;;;;;;;20.09;55.57;97237.75;10172854;29;20468;-56
2022/07/20 02:04:03;;;;;;;2.45;1.95;;;;;;;20.08;55.56;97236.16;10178341;29;20056;-56
2022/07/20 02:09:22;;;;;;;2.75;1.98;;;;;;;20.09;55.65;97231.53;10184965;29;20056;-56
2022/07/20 02:14:41;;;;;;;4.35;2.00;;;;;;;20.09;55.52;97226.13;10184901;29;20052;-56
2022/07/20 02:20:00;;;;;;;2.60;2.20;;;;;;;20.09;55.53;97231.53;10172450;29;20056;-56
2022/07/20 02:25:20;;;;;;;4.07;2.08;;;;;;;20.09;55.46;97226.13;10172192;29;20068;-56
2022/07/20 02:30:40;;;;;;;2.00;1.80;;;;;;;20.09;55.43;97226.94;10171504;29;20064;-56
2022/07/20 02:36:00;;;;;;;3.13;2.13;;;;;;;20.09;55.50;97223.44;10171851;29;20524;-56
2022/07/20 02:41:19;;;;;;;2.92;2.40;;;;;;;20.08;55.33;97227.25;10179095;29;20068;-56
2022/07/20 02:46:39;;;;;;;3.30;1.98;;;;;;;20.09;55.12;97231.53;10191474;29;20044;-56
2022/07/20 02:51:58;;;;;;;4.15;2.08;;;;;;;20.08;54.96;97236.16;10178594;29;20103;-56
2022/07/20 02:57:18;;;;;;;2.47;2.17;;;;;;;20.09;54.87;97239.66;10178688;29;20523;-56
2022/07/20 03:02:37;;;;;;;2.80;2.20;;;;;;;20.08;54.73;97230.75;10191344;29;20486;-56
2022/07/20 03:07:56;;;;;;;3.47;2.13;;;;;;;20.08;54.67;97233.47;10186625;29;20059;-56
2022/07/20 03:13:15;;;;;;;2.60;2.10;;;;;;;20.08;54.66;97238.06;10192063;29;20145;-56
2022/07/20 03:18:34;;;;;;;2.95;1.90;;;;;;;20.07;54.56;97239.19;10163420;29;20063;-55
2022/07/20 03:23:54;;;;;;;4.22;2.05;;;;;;;20.07;54.43;97234.59;10176545;29;20509;-56
2022/07/20 03:29:13;;;;;;;3.97;2.22;;;;;;;20.07;54.41;97236.47;10185232;29;20059;-56
2022/07/20 03:34:32;;;;;;;2.42;1.98;;;;;;;20.07;54.37;97233.75;10176989;29;20059;-56
2022/07/20 03:39:52;;;;;;;3.90;2.10;;;;;;;20.07;54.12;97241.88;10174932;29;20060;-56
2022/07/20 03:45:11;;;;;;;2.47;2.20;;;;;;;20.06;54.22;97241.09;10178345;29;20064;-56
2022/07/20 03:50:30;;;;;;;2.63;1.90;;;;;;;20.06;54.24;97241.09;10175653;29;20107;-56
2022/07/20 03:55:50;;;;;;;3.35;2.00;;;;;;;20.06;54.26;97248.41;10185382;29;20063;-56
2022/07/20 04:01:09;;;;;;;3.28;2.15;;;;;;;20.06;54.14;97240.31;10176247;29;20071;-56
2022/07/20 04:06:29;;;;;;;3.22;2.22;;;;;;;20.06;54.22;97238.38;10175225;29;20064;-56
2022/07/20 04:11:48;;;;;;;2.30;2.10;;;;;;;20.06;53.99;97238.38;10175712;29;20128;-56
2022/07/20 04:17:08;;;;;;;2.90;2.35;;;;;;;20.07;54.06;97250.00;10177613;29;20438;-57
2022/07/20 04:22:28;;;;;;;4.45;2.45;;;;;;;20.04;53.58;97247.94;10186118;29;20059;-57
2022/07/20 04:27:47;;;;;;;5.05;2.50;;;;;;;19.99;53.87;97238.06;10175054;29;20067;-56
2022/07/20 04:33:06;;;;;;;5.45;2.38;;;;;;;19.97;54.11;97258.41;10174845;29;20056;-56
2022/07/20 04:38:25;;;;;;;4.03;2.47;;;;;;;19.95;54.31;97261.44;10174520;29;20064;-56
2022/07/20 04:43:44;;;;;;;5.25;2.35;;;;;;;19.95;54.78;97258.72;10187185;29;20056;-57
2022/07/20 04:49:04;;;;;;;4.38;2.25;;;;;;;19.95;54.96;97270.38;10183435;29;20059;-56
2022/07/20 04:54:23;;;;;;;3.78;2.25;;;;;;;19.97;55.33;97271.94;10173984;29;20060;-56
2022/07/20 04:59:43;;;;;;;4.25;2.20;;;;;;;19.97;56.75;97271.94;10173309;29;20056;-57
2022/07/20 05:05:03;;;;;;;4.60;2.10;;;;;;;19.98;58.04;97271.63;10173137;29;20067;-57
2022/07/20 05:10:23;;;;;;;6.93;2.30;;;;;;;19.99;58.24;97267.00;10185876;29;20115;-56
2022/07/20 05:15:42;;;;;;;7.93;2.50;;;;;;;19.99;58.29;97259.69;10197178;29;20060;-57
2022/07/20 05:21:02;;;;;;;5.57;2.50;;;;;;;20.00;59.30;97255.88;10186143;29;20048;-57
2022/07/20 05:26:22;;;;;;;2.60;2.30;;;;;;;20.01;59.33;97264.78;10202715;29;20413;-58
2022/07/20 05:31:41;;;;;;;5.70;2.58;;;;;;;20.03;58.76;97271.50;10178365;29;20535;-58
2022/07/20 05:37:00;;;;;;;4.28;2.20;;;;;;;20.03;58.36;97267.97;10184427;29;20064;-57
2022/07/20 05:42:20;;;;;;;3.67;2.33;;;;;;;20.03;58.19;97263.38;10173400;29;20666;-55
2022/07/20 05:47:39;;;;;;;3.28;2.10;;;;;;;20.06;58.06;97272.75;10169886;29;20802;-57
2022/07/20 05:52:59;;;;;;;4.00;2.20;;;;;;;20.06;58.02;97278.97;10171602;29;20056;-57
2022/07/20 05:58:18;;;;;;;4.55;2.40;;;;;;;20.09;57.74;97275.63;10172364;29;20060;-56
2022/07/20 06:03:37;;;;;;;3.88;2.28;;;;;;;20.10;57.48;97274.50;10172537;29;20423;-56
2022/07/20 06:08:57;;;;;;;3.85;2.30;;;;;;;20.12;57.09;97275.00;10158111;29;20115;-57
2022/07/20 06:14:16;;;;;;;5.85;2.05;;;;;;;20.13;57.05;97275.78;10177265;29;20060;-56
2022/07/20 06:19:35;;;;;;;4.43;2.22;;;;;;;20.15;56.87;97273.56;10199828;29;20331;-57
2022/07/20 06:24:55;;;;;;;4.50;2.13;;;;;;;20.17;56.43;97273.25;10179035;29;20055;-55
2022/07/20 06:30:14;;;;;;;4.22;2.30;;;;;;;20.17;56.37;97287.59;10178853;29;20082;-56
2022/07/20 06:35:36;;;;;;;5.07;1.95;;;;;;;20.17;56.51;97282.16;10181469;29;20112;-56
2022/07/20 06:40:55;;;;;;;4.25;2.20;;;;;;;20.14;56.52;97280.09;10202346;29;20048;-56
2022/07/20 06:46:15;;;;;;;5.25;2.33;;;;;;;20.14;56.48;97288.19;10175304;29;20064;-56
2022/07/20 06:51:35;;;;;;;4.68;2.33;;;;;;;20.13;56.49;97281.19;10191176;29;20492;-56
2022/07/20 06:56:54;;;;;;;2.55;2.22;;;;;;;20.12;56.43;97280.41;10178626;29;20469;-56
2022/07/20 07:02:13;;;;;;;4.30;2.20;;;;;;;20.14;56.49;97288.19;10179275;29;20064;-56
2022/07/20 07:07:33;;;;;;;4.28;2.30;;;;;;;20.12;56.49;97282.31;10191437;29;20052;-56
2022/07/20 07:12:52;;;;;;;3.65;2.10;;;;;;;20.12;56.42;97280.41;10190266;29;20059;-57
2022/07/20 07:18:11;;;;;;;2.95;2.20;;;;;;;20.12;56.46;97279.59;10176116;29;20059;-56
2022/07/20 07:23:30;;;;;;;3.70;2.03;;;;;;;20.13;56.42;97281.19;10177045;29;20293;-56
2022/07/20 07:28:50;;;;;;;3.78;2.05;;;;;;;20.14;56.40;97289.00;10176372;29;20052;-56
2022/07/20 07:34:10;;;;;;;3.40;2.08;;;;;;;20.12;56.49;97277.69;10186134;29;20063;-55
2022/07/20 07:39:29;;;;;;;2.67;1.90;;;;;;;20.15;56.45;97279.00;10189583;29;20052;-56
2022/07/20 07:44:49;;;;;;;2.47;1.90;;;;;;;20.13;56.42;97275.78;10176190;29;20107;-56
2022/07/20 07:50:09;;;;;;;2.53;1.85;;;;;;;20.12;56.36;97272.28;10176499;29;20638;-56
2022/07/20 07:55:28;;;;;;;3.25;1.88;;;;;;;20.14;56.49;97290.91;10189185;29;20079;-56
2022/07/20 08:00:49;;;;;;;4.88;2.03;;;;;;;20.14;56.48;97283.56;10176029;29;20059;-56
2022/07/20 08:06:08;;;;;;;2.95;1.98;;;;;;;20.15;56.48;97289.81;10166504;29;20067;-56
2022/07/20 08:11:28;;;;;;;1.73;1.60;;;;;;;20.15;56.62;97292.50;10175902;29;20108;-56
2022/07/20 08:16:48;;;;;;;2.65;1.90;;;;;;;20.14;56.58;97299.81;10175517;29;20087;-56
2022/07/20 08:22:07;;;;;;;1.75;1.65;;;;;;;20.15;56.60;97296.00;10163162;29;20064;-56
2022/07/20 08:27:26;;;;;;;1.88;1.70;;;;;;;20.15;56.54;97284.41;10187559;29;20524;-56
2022/07/20 08:32:46;;;;;;;2.97;1.88;;;;;;;20.16;56.57;97285.97;10174569;29;20111;-56
2022/07/20 08:38:06;;;;;;;2.30;1.85;;;;;;;20.16;56.63;97280.56;10176433;29;20453;-57
2022/07/20 08:43:28;;;;;;;1.73;1.63;;;;;;;20.19;56.67;97282.66;10174616;29;20068;-56
2022/07/20 08:48:48;;;;;;;2.50;1.77;;;;;;;20.20;56.74;97273.41;10173662;29;20071;-56
2022/07/20 08:54:07;;;;;;;2.20;2.00;;;;;;;20.20;56.96;97270.69;10174015;29;20067;-56
2022/07/20 08:59:27;;;;;;;4.90;2.00;;;;;;;20.20;57.02;97273.41;10173507;29;20060;-56
2022/07/20 09:04:54;;;;;;;6.75;2.83;;;;;;;20.19;57.12;97276.41;10173986;29;20096;-56
2022/07/20 09:10:17;;;;;;;10.48;3.67;;;;;;;20.18;57.84;97282.97;10173631;29;20294;-55
2022/07/20 09:15:45;;;;;;;10.63;3.95;;;;;;;20.19;57.90;97277.25;10186287;29;20058;-55
2022/07/20 09:21:09;;;;;;;5.88;3.10;;;;;;;20.19;57.94;97281.84;10162941;29;20075;-56
2022/07/20 09:26:29;;;;;;;8.98;3.40;;;;;;;20.18;58.53;97262.09;10173363;29;20060;-56
2022/07/20 09:31:49;;;;;;;6.40;3.20;;;;;;;20.19;58.55;97268.31;10172352;29;20068;-56
2022/07/20 09:37:31;;;;;;;6.80;3.55;;;;;;;20.19;59.26;97271.84;10161303;29;20071;-56
2022/07/20 09:42:51;;;;;;;4.07;2.53;;;;;;;20.19;59.16;97279.13;10172441;29;20063;-56
2022/07/20 09:48:12;;;;;;;5.80;2.47;;;;;;;20.20;59.17;97269.91;10178806;29;20060;-56
2022/07/20 09:53:34;;;;;;;4.35;2.53;;;;;;;20.20;59.29;97270.69;10170045;29;20058;-56
2022/07/20 09:58:57;;;;;;;3.25;2.35;;;;;;;20.21;59.46;97266.09;10180648;29;20412;-56
2022/07/20 10:04:17;;;;;;;4.03;2.78;;;;;;;20.20;59.32;97265.28;10177829;29;20083;-56
2022/07/20 10:09:37;;;;;;;3.75;2.33;;;;;;;20.21;59.38;97253.38;10168637;29;20454;-56
2022/07/20 10:14:57;;;;;;;3.08;2.30;;;;;;;20.20;59.59;97259.88;10180205;29;20063;-56
2022/07/20 10:20:34;;;;;;;3.88;2.38;;;;;;;20.20;59.37;97257.19;10179888;29;20056;-56
2022/07/20 10:25:55;;;;;;;3.80;2.10;;;;;;;20.22;59.21;97256.88;10169342;29;20052;-56
2022/07/20 10:31:17;;;;;;;4.90;2.17;;;;;;;20.20;59.54;97248.28;10172914;29;20056;-56
2022/07/20 10:36:42;;;;;;;3.05;2.20;;;;;;;20.21;59.32;97249.84;10175603;29;20083;-56
2022/07/20 10:42:26;;;;;;;3.00;2.20;;;;;;;20.22;59.17;97243.34;10191721;29;20409;-56
2022/07/20 10:47:56;;;;;;;3.60;2.20;;;;;;;20.23;59.19;97242.22;10179002;29;20067;-56
2022/07/20 10:53:15;;;;;;;3.85;2.30;;;;;;;20.20;59.10;97232.81;10178370;29;20060;-56
2022/07/20 10:58:37;;;;;;;2.88;1.98;;;;;;;20.21;59.20;97231.72;10177490;29;20063;-56
2022/07/20 11:03:59;;;;;;;3.03;2.03;;;;;;;20.22;59.14;97227.09;10191076;29;20060;-54
2022/07/20 11:09:18;;;;;;;3.35;2.00;;;;;;;20.23;59.05;97225.97;10190340;29;20500;-55
2022/07/20 11:14:51;;;;;;;3.13;2.10;;;;;;;20.21;59.24;97220.91;10190680;29;20064;-56
2022/07/20 11:20:16;;;;;;;3.03;2.05;;;;;;;20.23;59.06;97220.56;10163689;29;20056;-57
2022/07/20 11:25:44;;;;;;;2.85;2.03;;;;;;;20.24;59.04;97228.38;10177358;29;20067;-57
2022/07/20 11:31:07;;;;;;;2.30;1.83;;;;;;;20.22;58.53;97211.66;10172590;29;20117;-57
2022/07/20 11:36:32;;;;;;;3.63;1.92;;;;;;;20.22;59.11;97202.75;10179386;29;20052;-56
2022/07/20 11:41:51;;;;;;;2.10;1.67;;;;;;;20.22;59.01;97198.13;10189516;29;20080;-57
2022/07/20 11:47:12;;;;;;;3.15;1.92;;;;;;;20.24;59.05;97190.50;10176787;29;20060;-56
2022/07/20 11:52:39;;;;;;;2.97;1.80;;;;;;;20.21;58.67;97180.34;10189392;29;20059;-56
2022/07/20 11:57:59;;;;;;;3.20;2.00;;;;;;;20.22;58.79;97191.94;10176251;29;20056;-54
2022/07/20 12:03:40;;;;;;;4.20;1.90;;;;;;;20.22;58.72;97190.03;10166249;29;20111;-56
2022/07/20 12:09:16;;;;;;;3.78;2.08;;;;;;;20.22;58.31;97195.44;10175785;29;20056;-56
2022/07/20 12:14:41;;;;;;;3.30;2.10;;;;;;;20.22;58.57;97192.72;10166199;29;20056;-54
2022/07/20 12:20:01;;;;;;;4.80;2.13;;;;;;;20.23;58.58;97188.09;10174636;29;20055;-56
2022/07/20 12:25:21;;;;;;;5.20;2.50;;;;;;;20.23;58.31;97180.81;10187715;29;20056;-57
2022/07/20 12:30:41;;;;;;;5.22;2.38;;;;;;;20.25;58.26;97178.56;10173017;29;20056;-56
2022/07/20 12:36:06;;;;;;;7.07;2.30;;;;;;;20.26;58.27;97172.03;10167522;29;20505;-56
2022/07/20 12:41:25;;;;;;;7.05;2.90;;;;;;;20.26;58.17;97166.63;10174699;29;20060;-56
2022/07/20 12:46:45;;;;;;;5.07;2.40;;;;;;;20.27;58.24;97160.13;10173225;29;20056;-56
2022/07/20 12:52:05;;;;;;;4.53;2.00;;;;;;;20.27;58.24;97160.13;10166416;29;20056;-55
2022/07/20 12:57:24;;;;;;;5.75;2.67;;;;;;;20.28;58.18;97152.78;10174102;29;20064;-57
2022/07/20 13:02:44;;;;;;;6.32;2.58;;;;;;;20.29;58.21;97148.97;10174447;29;20114;-57
2022/07/20 13:08:03;;;;;;;7.00;2.67;;;;;;;20.28;58.30;97142.75;10174123;29;20064;-56
2022/07/20 13:13:23;;;;;;;6.95;2.65;;;;;;;20.29;58.22;97138.94;10173666;29;20052;-57
2022/07/20 13:18:42;;;;;;;5.78;2.80;;;;;;;20.30;58.26;97140.50;10173326;29;20079;-57
2022/07/20 13:24:02;;;;;;;5.57;2.50;;;;;;;20.30;58.25;97132.41;10173287;29;20067;-56
2022/07/20 13:29:21;;;;;;;5.97;2.60;;;;;;;20.30;58.17;97135.09;10172820;29;20052;-54
2022/07/20 13:34:40;;;;;;;6.45;2.45;;;;;;;20.31;58.15;97125.09;10172505;29;20063;-56
2022/07/20 13:40:00;;;;;;;5.57;2.30;;;;;;;20.30;58.23;97129.69;10172510;29;20514;-57
2022/07/20 13:45:20;;;;;;;6.32;2.60;;;;;;;20.31;58.19;97117.78;10172971;29;20064;-57
2022/07/20 13:50:40;;;;;;;6.20;2.75;;;;;;;20.32;58.24;97110.44;10172025;29;20527;-57
2022/07/20 13:56:07;;;;;;;4.40;2.13;;;;;;;20.32;58.23;97116.63;10172872;29;20060;-57
2022/07/20 14:01:26;;;;;;;5.28;2.53;;;;;;;20.32;58.39;97119.34;10172627;29;20074;-56
2022/07/20 14:06:46;;;;;;;7.47;2.78;;;;;;;20.33;58.50;97112.03;10172741;29;20060;-57
2022/07/20 14:12:06;;;;;;;5.07;2.30;;;;;;;20.34;58.59;97103.59;10184044;29;20052;-57
2022/07/20 14:17:25;;;;;;;5.72;2.25;;;;;;;20.35;58.58;97107.09;10184936;29;20056;-56
2022/07/20 14:22:44;;;;;;;3.50;2.03;;;;;;;20.34;58.60;97092.75;10174409;29;20436;-57
2022/07/20 14:28:04;;;;;;;3.92;2.20;;;;;;;20.35;58.53;97088.94;10171959;29;20468;-56
2022/07/20 14:33:23;;;;;;;3.30;1.90;;;;;;;20.34;58.49;97092.75;10175617;29;20457;-56
2022/07/20 14:38:42;;;;;;;3.60;2.15;;;;;;;20.35;58.46;97072.72;10179128;29;20060;-56
2022/07/20 14:44:02;;;;;;;3.92;2.17;;;;;;;20.34;58.62;97076.53;10179244;29;20059;-55
2022/07/20 14:49:22;;;;;;;3.78;2.20;;;;;;;20.35;58.65;97078.13;10178104;29;20052;-56
2022/07/20 14:54:42;;;;;;;5.55;2.13;;;;;;;20.37;58.48;97071.63;10183596;29;20055;-60
2022/07/20 15:00:03;;;;;;;3.75;2.00;;;;;;;20.39;58.73;97066.66;10184053;29;20517;-58
2022/07/20 15:05:23;;;;;;;3.40;1.83;;;;;;;20.40;58.77;97070.94;10203770;29;20044;-56
2022/07/20 15:10:42;;;;;;;5.82;2.05;;;;;;;20.42;58.94;97063.31;10177681;29;20147;-56
2022/07/20 15:16:03;;;;;;;3.40;1.92;;;;;;;20.42;58.92;97060.59;10176659;29;20074;-56
2022/07/20 15:21:23;;;;;;;2.72;1.85;;;;;;;20.42;58.93;97060.59;10190289;29;20508;-56
2022/07/20 15:26:43;;;;;;;3.80;2.00;;;;;;;20.43;59.07;97046.75;10174021;29;20099;-56
2022/07/20 15:32:03;;;;;;;4.25;1.80;;;;;;;20.46;59.45;97051.50;10177767;29;20052;-57
2022/07/20 15:37:23;;;;;;;4.85;1.92;;;;;;;20.45;59.57;97047.22;10189673;29;20087;-54
2022/07/20 15:42:43;;;;;;;6.05;1.70;;;;;;;20.48;59.45;97051.19;10176712;29;20064;-57
2022/07/20 15:48:04;;;;;;;3.28;1.70;;;;;;;20.50;59.74;97035.41;10176741;29;20067;-55
2022/07/20 15:53:25;;;;;;;4.25;1.92;;;;;;;20.51;59.91;97042.44;10188893;29;20063;-56
2022/07/20 15:58:45;;;;;;;3.60;1.73;;;;;;;20.52;59.98;97039.41;10176484;29;20059;-57
2022/07/20 16:04:05;;;;;;;3.15;1.70;;;;;;;20.54;59.79;97030.94;10188010;29;20103;-57
2022/07/20 16:09:24;;;;;;;4.45;1.70;;;;;;;20.53;59.89;97030.16;10173560;29;20056;-56
2022/07/20 16:14:44;;;;;;;2.75;1.65;;;;;;;20.56;59.94;97028.69;10186098;29;20090;-58
2022/07/20 16:20:08;;;;;;;3.58;1.73;;;;;;;20.57;59.75;97029.50;10174243;29;20052;-57
2022/07/20 16:25:28;;;;;;;4.03;1.95;;;;;;;20.53;57.45;97026.66;10158146;29;20074;-57
2022/07/20 16:30:47;;;;;;;3.40;1.77;;;;;;;20.51;58.60;97015.38;10163081;29;20067;-57
2022/07/20 16:36:07;;;;;;;3.05;1.80;;;;;;;20.50;58.78;97013.75;10186145;29;20476;-57
2022/07/20 16:41:26;;;;;;;4.85;1.80;;;;;;;20.47;59.17;97019.84;10173491;29;20068;-55
2022/07/20 16:46:46;;;;;;;4.47;1.77;;;;;;;20.47;59.56;97009.00;10172991;29;20060;-56
2022/07/20 16:52:06;;;;;;;2.70;1.67;;;;;;;20.44;59.40;97006.94;10157914;29;20052;-56
2022/07/20 16:57:26;;;;;;;3.15;1.45;;;;;;;20.43;59.56;96998.03;10184596;29;20660;-56
2022/07/20 17:02:45;;;;;;;2.60;1.60;;;;;;;20.45;59.11;97003.13;10179455;29;20052;-57
2022/07/20 17:08:06;;;;;;;3.08;1.70;;;;;;;20.47;59.10;97004.38;10185382;29;20091;-58
2022/07/20 17:19:23;;;;;;;2.45;1.58;;;;;;;20.48;59.14;97000.56;10203143;29;20059;-54
2022/07/20 17:24:40;;;;;;;3.22;1.70;;;;;;;20.51;59.68;97004.53;10208771;29;20064;-57
2022/07/20 17:30:00;;;;;;;3.28;1.52;;;;;;;20.52;59.70;96995.28;10222712;28;20059;-54
2022/07/20 17:35:21;;;;;;;3.85;1.98;;;;;;;20.53;59.75;96992.25;10209215;29;20071;-54
2022/07/20 17:40:40;;;;;;;2.80;1.48;;;;;;;20.55;59.82;96994.66;10209345;29;20059;-54
2022/07/20 17:46:00;;;;;;;3.33;1.50;;;;;;;20.55;59.87;96991.94;10210455;29;20055;-47
2022/07/20 17:51:19;;;;;;;3.72;1.70;;;;;;;20.57;59.96;96997.81;10208908;29;20059;-49
2022/07/20 17:56:42;;;;;;;2.72;1.70;;;;;;;20.57;59.93;96983.50;10209705;29;20144;-47
2022/07/20 18:02:01;;;;;;;2.80;1.63;;;;;;;20.58;59.92;97002.13;10204186;29;20492;-47
2022/07/20 18:07:20;;;;;;;3.22;1.70;;;;;;;20.58;59.81;97001.31;10211786;29;20127;-49
2022/07/20 18:12:40;;;;;;;4.25;1.63;;;;;;;20.59;59.87;97009.16;10229985;28;20127;-47
2022/07/20 18:17:59;;;;;;;2.65;1.50;;;;;;;20.60;60.05;97008.03;10216748;29;20060;-47
2022/07/20 18:23:18;;;;;;;1.98;1.67;;;;;;;20.60;60.06;96999.91;10212925;29;20515;-49
2022/07/20 18:28:40;;;;;;;3.58;2.00;;;;;;;20.60;59.99;97002.63;10229131;28;20059;-48
2022/07/20 18:34:02;;;;;;;2.08;1.58;;;;;;;20.61;60.09;97000.72;10229087;28;20051;-48
2022/07/20 18:39:21;;;;;;;2.80;1.58;;;;;;;20.61;60.11;97004.19;10228811;28;20056;-48
2022/07/20 18:44:40;;;;;;;3.80;1.88;;;;;;;20.62;60.07;97008.50;10228789;28;20048;-47
2022/07/20 18:50:00;;;;;;;1.90;1.60;;;;;;;20.62;60.08;97016.63;10215149;29;20396;-51
2022/07/20 18:55:19;;;;;;;6.45;1.67;;;;;;;20.63;60.03;97010.06;10215441;29;20083;-48
2022/07/20 19:00:40;;;;;;;3.67;1.65;;;;;;;20.62;59.94;97005.78;10205966;29;20055;-47
2022/07/20 19:06:02;;;;;;;3.08;1.98;;;;;;;20.61;59.83;97009.63;10217806;29;20066;-49
2022/07/20 19:11:21;;;;;;;3.03;1.83;;;;;;;20.61;59.92;97012.31;10203422;29;20062;-48
2022/07/20 19:16:41;;;;;;;3.45;2.00;;;;;;;20.62;59.88;97019.34;10216788;29;20056;-47
2022/07/20 19:22:00;;;;;;;4.50;1.83;;;;;;;20.61;59.84;97006.91;10228998;29;20051;-47
2022/07/20 19:27:19;;;;;;;6.72;1.83;;;;;;;20.61;59.90;97011.53;10216890;29;20048;-46
2022/07/20 19:32:40;;;;;;;3.78;2.10;;;;;;;20.61;59.79;97014.25;10216331;29;20411;-47
2022/07/20 19:38:00;;;;;;;4.95;1.85;;;;;;;20.61;59.81;97008.81;10229294;28;20107;-46
2022/07/20 19:43:20;;;;;;;3.10;1.83;;;;;;;20.61;59.93;97011.53;10216397;29;20059;-48
2022/07/20 19:48:40;;;;;;;3.50;2.00;;;;;;;20.61;59.91;97014.25;10228697;28;20048;-48
2022/07/20 19:53:59;;;;;;;2.45;1.80;;;;;;;20.61;59.99;97020.44;10213154;29;20067;-47
2022/07/20 19:59:19;;;;;;;3.60;2.00;;;;;;;20.60;59.99;97002.63;10215312;29;20559;-49
2022/07/20 20:04:41;;;;;;;3.05;1.67;;;;;;;20.60;60.06;97002.63;10205202;29;20142;-47
2022/07/20 20:10:00;;;;;;;3.15;2.10;;;;;;;20.60;60.14;97008.03;10215407;29;20052;-48
2022/07/20 20:15:20;;;;;;;3.28;2.08;;;;;;;20.61;60.10;97008.81;10214402;29;20063;-46
2022/07/20 20:20:41;;;;;;;2.80;2.05;;;;;;;20.60;59.99;97013.44;10202572;29;20056;-46
2022/07/20 20:26:00;;;;;;;3.97;2.10;;;;;;;20.60;59.96;97008.03;10214806;29;20059;-46
2022/07/20 20:31:20;;;;;;;3.83;1.85;;;;;;;20.60;59.81;97008.03;10213327;29;20059;-47
2022/07/20 20:36:39;;;;;;;2.72;1.90;;;;;;;20.61;59.74;97008.81;10213653;29;20492;-49
2022/07/20 20:41:59;;;;;;;2.13;1.88;;;;;;;20.60;59.62;97005.34;10227007;28;20110;-47
2022/07/20 20:47:18;;;;;;;4.70;2.15;;;;;;;20.60;59.58;96999.91;10221779;28;20058;-47
2022/07/20 20:52:38;;;;;;;2.78;2.08;;;;;;;20.60;59.71;97002.63;10209727;29;20059;-49
2022/07/20 20:57:57;;;;;;;2.78;2.10;;;;;;;20.61;59.62;97000.72;10213554;29;20114;-48
2022/07/20 21:03:17;;;;;;;3.55;2.60;;;;;;;20.60;59.67;97008.03;10213537;29;20060;-47
2022/07/20 21:08:36;;;;;;;2.53;2.10;;;;;;;20.59;59.58;97011.84;10212116;29;20459;-47
2022/07/20 21:13:57;;;;;;;3.03;2.05;;;;;;;20.60;59.71;97018.88;10212501;29;20052;-49
2022/07/20 21:19:16;;;;;;;2.70;2.10;;;;;;;20.60;59.68;97021.56;10213223;29;20056;-47
2022/07/20 21:24:36;;;;;;;5.72;2.00;;;;;;;20.61;59.67;97033.97;10225653;28;20646;-46
2022/07/20 21:29:56;;;;;;;4.10;2.30;;;;;;;20.60;59.69;97040.53;10187331;29;20063;-47
2022/07/20 21:35:15;;;;;;;2.30;1.80;;;;;;;20.59;59.78;97033.50;10210749;29;20067;-47
2022/07/20 21:40:34;;;;;;;2.08;1.73;;;;;;;20.60;59.78;97045.94;10212124;29;20056;-47
2022/07/20 21:45:54;;;;;;;1.90;1.65;;;;;;;20.60;59.66;97028.88;10212159;29;20056;-47
2022/07/20 21:51:13;;;;;;;2.63;2.08;;;;;;;20.61;59.78;97041.31;10212023;29;20062;-47
2022/07/20 21:56:32;;;;;;;2.42;1.95;;;;;;;20.60;59.55;97039.69;10212131;29;20063;-46
2022/07/20 22:01:52;;;;;;;2.30;1.95;;;;;;;20.61;59.65;97046.72;10212159;29;20051;-47
2022/07/20 22:07:11;;;;;;;2.97;2.08;;;;;;;20.61;59.63;97046.72;10224614;29;20407;-47
2022/07/20 22:12:32;;;;;;;2.30;1.90;;;;;;;20.60;59.48;97045.94;10224523;29;20048;-47
2022/07/20 22:17:51;;;;;;;2.00;1.77;;;;;;;20.60;59.51;97042.41;10224365;29;20078;-49
2022/07/20 22:23:10;;;;;;;2.42;2.00;;;;;;;20.60;59.57;97047.81;10230390;29;20496;-47
2022/07/20 22:28:30;;;;;;;4.60;2.30;;;;;;;20.60;59.54;97045.94;10223681;29;20119;-47
2022/07/20 22:33:49;;;;;;;2.63;1.67;;;;;;;20.60;59.47;97047.81;10219167;29;20475;-47
2022/07/20 22:39:09;;;;;;;3.15;2.05;;;;;;;20.61;59.53;97049.44;10210977;29;20114;-49
2022/07/20 22:44:29;;;;;;;2.25;1.98;;;;;;;20.60;59.36;97045.94;10211212;29;20063;-48
2022/07/20 22:49:49;;;;;;;6.43;2.30;;;;;;;20.60;59.22;97050.53;10211091;29;20060;-48
2022/07/20 22:55:09;;;;;;;2.95;1.90;;;;;;;20.59;59.14;97049.75;10203603;29;21081;-48
2022/07/20 23:00:31;;;;;;;3.17;1.88;;;;;;;20.60;59.15;97051.34;10230612;28;20055;-47
2022/07/20 23:05:51;;;;;;;1.88;1.77;;;;;;;20.60;59.11;97053.25;10230622;28;20051;-50
2022/07/20 23:11:10;;;;;;;2.58;2.00;;;;;;;20.60;58.92;97054.06;10207541;29;20055;-47
2022/07/20 23:16:30;;;;;;;3.17;1.80;;;;;;;20.59;59.08;97049.75;10223492;28;20055;-47
2022/07/20 23:21:49;;;;;;;1.90;1.80;;;;;;;20.61;59.04;97046.72;10216097;29;20059;-46
2022/07/20 23:27:08;;;;;;;2.50;1.92;;;;;;;20.60;58.95;97042.41;10229608;28;20052;-47
2022/07/20 23:32:28;;;;;;;2.13;1.60;;;;;;;20.60;58.96;97028.88;10229113;28;20048;-47
2022/07/20 23:37:49;;;;;;;2.25;1.88;;;;;;;20.61;58.92;97025.06;10217941;29;20055;-46
2022/07/20 23:43:09;;;;;;;2.25;2.05;;;;;;;20.60;58.91;97024.28;10202306;29;20059;-49
2022/07/20 23:48:28;;;;;;;2.03;1.80;;;;;;;20.59;58.81;97027.28;10216227;29;20115;-47
2022/07/20 23:53:47;;;;;;;2.22;1.83;;;;;;;20.60;58.73;97020.75;10216194;29;20051;-47
2022/07/20 23:59:07;;;;;;;2.35;1.75;;;;;;;20.59;58.64;97021.84;10203026;29;20063;-48
